Time;durP1;ratioP1;P1;durP2;ratioP2;P2;SDS_P1;SDS_P2;PMS_P1;PMS_P2;Temp;Humidity;BMP_temperature;BMP_pressure;BME280_temperature;BME280_humidity;BME280_pressure;Samples;Min_cycle;Max_cycle;Signal;HPM_P1;HPM_P2
2022/01/08 00:01:38;;;;;;;4.50;4.10;;;2.70;99.90;;;;;;5063578;28;20451;-48
2022/01/08 00:04:06;;;;;;;5.30;4.30;;;2.80;99.90;;;;;;5064381;28;20525;-47
2022/01/08 00:06:33;;;;;;;4.80;3.33;;;2.80;99.90;;;;;;5063805;28;20444;-50
2022/01/08 00:09:00;;;;;;;12.53;5.40;;;2.80;99.90;;;;;;5065358;28;20471;-46
2022/01/08 00:11:27;;;;;;;3.37;2.57;;;2.80;99.90;;;;;;5065289;28;20501;-44
2022/01/08 00:13:54;;;;;;;4.43;2.90;;;2.90;99.90;;;;;;5063771;28;20483;-50
2022/01/08 00:16:21;;;;;;;5.80;3.63;;;2.80;99.90;;;;;;5064006;28;20470;-47
2022/01/08 00:18:48;;;;;;;4.90;3.93;;;2.80;99.90;;;;;;5063857;28;20993;-47
2022/01/08 00:21:17;;;;;;;3.20;2.27;;;2.80;99.90;;;;;;5064140;28;20509;-50
2022/01/08 00:23:43;;;;;;;6.00;4.47;;;2.80;99.90;;;;;;5063461;28;20472;-47
2022/01/08 00:26:10;;;;;;;4.60;3.03;;;2.80;99.90;;;;;;5064301;28;20428;-52
2022/01/08 00:28:36;;;;;;;5.17;3.20;;;2.80;99.90;;;;;;5064912;28;20439;-46
2022/01/08 00:31:04;;;;;;;5.47;4.73;;;2.70;99.90;;;;;;5064255;28;20424;-47
2022/01/08 00:33:31;;;;;;;4.83;3.40;;;2.70;99.90;;;;;;5064241;28;20455;-49
2022/01/08 00:35:57;;;;;;;5.90;3.50;;;2.70;99.90;;;;;;5064554;28;20424;-45
2022/01/08 00:38:25;;;;;;;5.87;3.80;;;2.60;99.90;;;;;;5064196;28;20444;-51
2022/01/08 00:40:54;;;;;;;12.33;4.60;;;2.60;99.90;;;;;;5063799;28;20487;-52
2022/01/08 00:43:21;;;;;;;6.13;4.17;;;2.60;99.90;;;;;;5063618;28;20459;-47
2022/01/08 00:45:47;;;;;;;5.90;4.67;;;2.60;99.90;;;;;;5063869;28;20904;-48
2022/01/08 00:48:14;;;;;;;5.57;4.17;;;2.60;99.90;;;;;;5064650;28;20505;-47
2022/01/08 00:50:41;;;;;;;4.30;3.27;;;2.60;99.90;;;;;;5064820;28;20455;-49
2022/01/08 00:53:08;;;;;;;4.50;3.80;;;2.60;99.90;;;;;;5064523;28;20482;-52
2022/01/08 00:55:36;;;;;;;7.30;4.00;;;2.50;99.90;;;;;;5064513;28;20470;-50
2022/01/08 00:58:03;;;;;;;6.10;4.07;;;2.60;99.90;;;;;;5064525;28;20494;-49
2022/01/08 01:00:29;;;;;;;6.53;3.30;;;2.60;99.90;;;;;;5064599;28;20487;-49
2022/01/08 01:02:56;;;;;;;6.00;3.23;;;2.70;99.90;;;;;;5064880;28;20447;-50
2022/01/08 01:05:23;;;;;;;5.27;3.43;;;2.70;99.90;;;;;;5064337;28;20486;-52
2022/01/08 01:07:50;;;;;;;5.73;3.40;;;2.70;99.90;;;;;;5064265;28;20439;-48
2022/01/08 01:10:17;;;;;;;5.83;3.93;;;2.70;99.90;;;;;;5064353;28;20463;-45
2022/01/08 01:12:45;;;;;;;5.67;4.03;;;2.80;99.90;;;;;;5065447;28;20972;-47
2022/01/08 01:15:15;;;;;;;4.50;3.30;;;2.70;99.90;;;;;;5064822;28;20468;-50
2022/01/08 01:17:42;;;;;;;3.27;2.77;;;2.70;99.90;;;;;;5065248;28;20525;-46
2022/01/08 01:20:11;;;;;;;6.50;4.00;;;2.70;99.90;;;;;;5064982;28;20495;-53
2022/01/08 01:22:46;;;;;;;6.23;3.03;;;2.80;99.90;;;;;;5065070;28;20474;-45
2022/01/08 01:25:17;;;;;;;5.03;3.50;;;2.80;99.90;;;;;;5064093;28;20481;-47
2022/01/08 01:27:59;;;;;;;5.57;4.70;;;2.70;99.90;;;;;;5064560;28;20432;-50
2022/01/08 01:30:49;;;;;;;6.10;4.13;;;2.80;99.90;;;;;;5065082;28;20935;-50
2022/01/08 01:41:40;;;;;;;5.20;3.83;;;2.80;99.90;;;;;;5063799;28;20628;-50
2022/01/08 01:47:04;;;;;;;5.87;3.83;;;2.80;99.90;;;;;;5064012;28;20803;-50
2022/01/08 01:49:32;;;;;;;8.53;4.60;;;2.70;99.90;;;;;;5064223;28;20525;-46
2022/01/08 01:51:59;;;;;;;5.47;3.67;;;2.80;99.90;;;;;;5064275;28;20436;-47
2022/01/08 01:54:27;;;;;;;7.67;4.20;;;2.80;99.90;;;;;;5063616;28;20488;-52
2022/01/08 01:56:54;;;;;;;5.53;4.13;;;2.80;99.90;;;;;;5064178;28;20486;-50
2022/01/08 01:59:22;;;;;;;5.80;4.53;;;2.80;99.90;;;;;;5063314;28;20448;-51
2022/01/08 02:01:49;;;;;;;7.10;3.50;;;2.80;99.90;;;;;;5063381;28;20501;-50
2022/01/08 02:04:16;;;;;;;5.97;3.20;;;2.80;99.90;;;;;;5063096;28;20512;-47
2022/01/08 02:06:42;;;;;;;7.13;4.13;;;2.80;99.90;;;;;;5063839;28;20464;-50
2022/01/08 02:09:09;;;;;;;6.90;4.23;;;2.90;99.90;;;;;;5064205;28;20501;-46
2022/01/08 02:11:58;;;;;;;5.30;3.53;;;2.90;99.90;;;;;;5064295;28;20454;-50
2022/01/08 02:14:27;;;;;;;8.17;3.80;;;2.80;99.90;;;;;;5064122;28;20432;-51
2022/01/08 02:16:54;;;;;;;5.27;2.87;;;2.90;99.90;;;;;;5064175;28;20431;-51
2022/01/08 02:19:21;;;;;;;4.10;3.53;;;2.90;99.90;;;;;;5063888;28;20454;-48
2022/01/08 02:21:51;;;;;;;5.83;3.50;;;2.80;99.90;;;;;;5063127;28;20513;-49
2022/01/08 02:24:18;;;;;;;5.90;3.80;;;2.90;99.90;;;;;;5063354;28;20451;-50
2022/01/08 02:26:45;;;;;;;6.00;3.33;;;2.80;99.90;;;;;;5063746;28;20478;-48
2022/01/08 02:29:15;;;;;;;7.13;4.30;;;2.80;99.90;;;;;;5064466;28;20428;-50
2022/01/08 02:31:52;;;;;;;4.80;3.90;;;2.80;99.90;;;;;;5063653;28;20435;-48
2022/01/08 02:34:18;;;;;;;9.93;3.80;;;2.80;99.90;;;;;;5062914;28;20432;-47
2022/01/08 02:36:45;;;;;;;10.00;4.87;;;2.80;99.90;;;;;;5062709;28;20439;-49
2022/01/08 02:39:13;;;;;;;4.73;3.30;;;2.80;99.90;;;;;;5063363;28;20439;-45
2022/01/08 02:41:40;;;;;;;5.90;4.43;;;2.80;99.90;;;;;;5063283;28;20484;-49
2022/01/08 02:44:07;;;;;;;5.17;3.37;;;2.80;99.90;;;;;;5063574;28;20462;-49
2022/01/08 02:46:34;;;;;;;3.63;3.20;;;2.80;99.90;;;;;;5063491;28;20478;-48
2022/01/08 02:49:02;;;;;;;4.40;3.50;;;2.90;99.90;;;;;;5066309;28;20519;-51
2022/01/08 02:51:31;;;;;;;7.83;3.97;;;2.90;99.90;;;;;;5067003;28;20490;-51
2022/01/08 02:53:57;;;;;;;4.87;3.73;;;2.90;99.90;;;;;;5066815;28;20485;-53
2022/01/08 02:56:25;;;;;;;7.20;3.40;;;2.90;99.90;;;;;;5066925;28;20471;-49
2022/01/08 02:58:52;;;;;;;6.43;3.30;;;3.00;99.90;;;;;;5066057;28;20448;-51
2022/01/08 03:01:19;;;;;;;5.50;3.87;;;3.00;99.90;;;;;;5065954;28;20495;-48
2022/01/08 03:03:45;;;;;;;5.07;3.33;;;3.00;99.90;;;;;;5066315;28;20517;-49
2022/01/08 03:06:12;;;;;;;5.87;3.53;;;3.10;99.90;;;;;;5066765;28;20459;-50
2022/01/08 03:08:39;;;;;;;4.30;3.43;;;3.10;99.90;;;;;;5066738;28;20469;-48
2022/01/08 03:11:06;;;;;;;5.17;4.13;;;3.10;99.90;;;;;;5066581;28;20460;-51
2022/01/08 03:13:37;;;;;;;4.30;3.33;;;3.10;99.90;;;;;;5066043;28;20459;-46
2022/01/08 03:16:05;;;;;;;6.10;4.13;;;3.20;99.90;;;;;;5065112;28;20533;-48
2022/01/08 03:18:35;;;;;;;4.90;3.50;;;3.20;99.90;;;;;;5065303;28;20520;-48
2022/01/08 03:21:11;;;;;;;8.30;4.20;;;3.20;99.90;;;;;;5064851;28;20544;-48
2022/01/08 03:23:47;;;;;;;5.00;3.00;;;3.20;99.90;;;;;;5065198;28;20503;-49
2022/01/08 03:26:14;;;;;;;5.53;3.30;;;3.20;99.90;;;;;;5064927;28;20943;-45
2022/01/08 03:28:42;;;;;;;5.73;3.30;;;3.20;99.90;;;;;;5064463;28;20451;-47
2022/01/08 03:31:09;;;;;;;4.63;3.23;;;3.20;99.90;;;;;;5064191;28;20468;-48
2022/01/08 03:33:35;;;;;;;4.17;3.43;;;3.20;99.90;;;;;;5064900;28;20462;-50
2022/01/08 03:36:05;;;;;;;6.20;4.47;;;3.10;99.90;;;;;;5065623;28;20537;-49
2022/01/08 03:38:32;;;;;;;5.40;3.20;;;3.20;99.90;;;;;;5066582;28;20463;-46
2022/01/08 03:40:59;;;;;;;6.47;3.93;;;3.10;99.90;;;;;;5066539;28;20524;-47
2022/01/08 03:43:26;;;;;;;5.10;3.70;;;3.10;99.90;;;;;;5065872;28;20451;-50
2022/01/08 03:45:54;;;;;;;6.77;4.10;;;3.10;99.90;;;;;;5064920;28;20475;-52
2022/01/08 03:48:28;;;;;;;6.10;3.83;;;3.20;99.90;;;;;;5064479;28;20467;-52
2022/01/08 03:50:55;;;;;;;7.40;4.03;;;3.20;99.90;;;;;;5064958;28;20839;-46
2022/01/08 03:53:22;;;;;;;4.13;3.13;;;3.10;99.90;;;;;;5064456;28;20443;-48
2022/01/08 03:55:49;;;;;;;4.53;3.70;;;3.20;99.90;;;;;;5065376;28;20471;-46
2022/01/08 03:58:16;;;;;;;5.93;4.57;;;3.20;99.90;;;;;;5064295;28;20444;-45
2022/01/08 04:00:43;;;;;;;5.37;3.73;;;3.10;99.90;;;;;;5064242;28;20487;-51
2022/01/08 04:03:11;;;;;;;5.53;3.93;;;3.10;99.90;;;;;;5065118;28;20436;-53
2022/01/08 04:05:38;;;;;;;5.13;3.57;;;3.10;99.90;;;;;;5065197;28;20451;-50
2022/01/08 04:08:06;;;;;;;5.80;4.10;;;3.10;99.90;;;;;;5064570;28;20432;-49
2022/01/08 04:10:33;;;;;;;7.00;3.70;;;3.00;99.90;;;;;;5064796;28;20574;-48
2022/01/08 04:13:08;;;;;;;8.57;4.57;;;3.00;99.90;;;;;;5065072;28;20428;-49
2022/01/08 04:15:37;;;;;;;4.10;3.47;;;3.00;99.90;;;;;;5065029;28;20455;-49
2022/01/08 04:18:04;;;;;;;6.33;3.67;;;3.00;99.90;;;;;;5064286;28;20881;-47
2022/01/08 04:20:36;;;;;;;6.97;4.60;;;3.00;99.90;;;;;;5064514;28;20487;-49
2022/01/08 04:23:03;;;;;;;6.57;3.33;;;3.00;99.90;;;;;;5065165;28;20454;-48
2022/01/08 04:25:33;;;;;;;5.57;3.80;;;3.00;99.90;;;;;;5064816;28;20455;-50
2022/01/08 04:27:59;;;;;;;5.30;3.70;;;3.00;99.90;;;;;;5065895;28;20509;-48
2022/01/08 04:30:26;;;;;;;4.73;3.10;;;3.00;99.90;;;;;;5066317;28;20451;-46
2022/01/08 04:32:53;;;;;;;6.73;3.50;;;3.00;99.90;;;;;;5065629;28;20439;-50
2022/01/08 04:35:19;;;;;;;5.47;4.27;;;2.90;99.90;;;;;;5064968;28;20482;-50
2022/01/08 04:37:47;;;;;;;6.87;3.40;;;2.90;99.90;;;;;;5064416;28;20792;-50
2022/01/08 04:40:14;;;;;;;8.37;3.93;;;3.00;99.90;;;;;;5064884;28;20444;-48
2022/01/08 04:42:41;;;;;;;7.53;4.73;;;3.00;99.90;;;;;;5065148;28;20478;-52
2022/01/08 04:45:08;;;;;;;9.10;4.63;;;3.00;99.90;;;;;;5064884;28;20447;-49
2022/01/08 04:47:35;;;;;;;4.30;3.30;;;3.00;99.90;;;;;;5064935;28;20475;-45
2022/01/08 04:50:01;;;;;;;7.20;4.30;;;3.10;99.90;;;;;;5064446;28;20530;-47
2022/01/08 04:52:28;;;;;;;4.53;3.30;;;3.10;99.90;;;;;;5064549;28;20525;-51
2022/01/08 04:54:56;;;;;;;4.93;3.83;;;3.10;99.90;;;;;;5063612;28;20460;-48
2022/01/08 04:57:23;;;;;;;7.70;4.83;;;3.10;99.90;;;;;;5063048;28;20464;-48
2022/01/08 04:59:49;;;;;;;7.67;3.97;;;3.10;99.90;;;;;;5063822;28;20443;-49
2022/01/08 05:02:16;;;;;;;6.33;4.10;;;3.10;99.90;;;;;;5063433;28;20495;-50
2022/01/08 05:04:44;;;;;;;5.50;4.60;;;3.20;99.90;;;;;;5064003;28;20440;-46
2022/01/08 05:07:11;;;;;;;5.70;4.20;;;3.20;99.90;;;;;;5063416;28;20478;-51
2022/01/08 05:09:38;;;;;;;7.73;4.03;;;3.20;99.90;;;;;;5063213;28;20509;-47
2022/01/08 05:12:07;;;;;;;5.70;4.37;;;3.20;99.90;;;;;;5062938;28;20463;-49
2022/01/08 05:14:33;;;;;;;9.93;5.27;;;3.20;99.90;;;;;;5063631;28;20811;-51
2022/01/08 05:17:01;;;;;;;6.10;4.33;;;3.20;99.90;;;;;;5063978;28;20497;-51
2022/01/08 05:19:38;;;;;;;6.97;5.27;;;3.20;99.90;;;;;;5065288;28;20455;-52
2022/01/08 05:22:07;;;;;;;9.73;4.87;;;3.20;99.90;;;;;;5064145;28;20490;-51
2022/01/08 05:24:34;;;;;;;8.77;3.20;;;3.10;99.90;;;;;;5064682;28;20444;-50
2022/01/08 05:27:03;;;;;;;5.90;3.93;;;3.20;99.90;;;;;;5064189;28;20474;-45
2022/01/08 05:29:31;;;;;;;6.23;3.70;;;3.20;99.90;;;;;;5063276;28;20434;-46
2022/01/08 05:32:00;;;;;;;8.20;4.53;;;3.20;99.90;;;;;;5073239;28;20462;-49
2022/01/08 05:34:27;;;;;;;9.00;5.60;;;3.20;99.90;;;;;;5074929;28;20451;-50
2022/01/08 05:36:53;;;;;;;8.23;4.47;;;3.20;99.90;;;;;;5074900;28;20464;-47
2022/01/08 05:39:20;;;;;;;5.97;3.50;;;3.20;99.90;;;;;;5075539;28;20478;-51
2022/01/08 05:41:50;;;;;;;5.57;3.80;;;3.20;99.90;;;;;;5075093;28;20487;-55
2022/01/08 05:44:16;;;;;;;7.07;3.90;;;3.20;99.90;;;;;;5075692;28;20428;-51
2022/01/08 05:46:47;;;;;;;4.13;2.87;;;3.10;99.90;;;;;;5075304;28;20467;-54
2022/01/08 05:49:15;;;;;;;7.40;4.43;;;3.10;99.90;;;;;;5075524;28;20489;-48
2022/01/08 05:51:42;;;;;;;5.50;4.07;;;3.10;99.90;;;;;;5074547;28;20507;-53
2022/01/08 05:54:08;;;;;;;6.40;3.70;;;3.10;99.90;;;;;;5075645;28;20404;-48
2022/01/08 05:56:35;;;;;;;7.03;3.77;;;3.00;99.90;;;;;;5075242;28;20444;-50
2022/01/08 05:59:02;;;;;;;8.83;5.60;;;3.00;99.90;;;;;;5075263;28;20446;-53
2022/01/08 06:01:29;;;;;;;5.73;3.60;;;3.00;99.90;;;;;;5075163;28;20506;-49
2022/01/08 06:04:00;;;;;;;5.60;3.47;;;3.00;99.90;;;;;;5075203;28;20458;-51
2022/01/08 06:06:27;;;;;;;10.20;4.83;;;3.00;99.90;;;;;;5075309;28;20440;-54
2022/01/08 06:08:55;;;;;;;7.77;4.13;;;3.00;99.90;;;;;;5074600;28;20444;-55
2022/01/08 06:11:21;;;;;;;8.13;5.20;;;3.00;99.90;;;;;;5075121;28;20454;-52
2022/01/08 06:13:48;;;;;;;5.13;2.80;;;2.90;99.90;;;;;;5074915;28;20444;-48
2022/01/08 06:16:15;;;;;;;7.47;6.00;;;2.90;99.90;;;;;;5074877;28;20482;-51
2022/01/08 06:18:42;;;;;;;4.87;3.77;;;2.90;99.90;;;;;;5074999;28;20470;-53
2022/01/08 06:21:10;;;;;;;5.50;4.20;;;2.90;99.90;;;;;;5075296;28;20482;-49
2022/01/08 06:23:36;;;;;;;6.80;4.83;;;2.80;99.90;;;;;;5077695;28;20474;-51
2022/01/08 06:26:05;;;;;;;3.87;2.07;;;2.90;99.90;;;;;;5078856;28;20428;-46
2022/01/08 06:28:31;;;;;;;6.10;4.13;;;2.90;99.90;;;;;;5079189;28;20459;-49
2022/01/08 06:30:58;;;;;;;6.07;3.30;;;2.80;99.90;;;;;;5079230;28;20466;-51
2022/01/08 06:33:27;;;;;;;7.63;4.23;;;2.90;99.90;;;;;;5078651;28;20444;-51
2022/01/08 06:35:53;;;;;;;6.80;4.50;;;2.90;99.90;;;;;;5078515;28;20473;-49
2022/01/08 06:38:21;;;;;;;5.83;3.70;;;3.00;99.90;;;;;;5078112;28;20463;-51
2022/01/08 06:40:48;;;;;;;5.60;4.00;;;3.00;99.90;;;;;;5079161;28;20446;-49
2022/01/08 06:43:16;;;;;;;7.10;4.97;;;3.00;99.90;;;;;;5078264;28;20490;-53
2022/01/08 06:45:43;;;;;;;10.70;5.53;;;3.00;99.90;;;;;;5078564;28;20444;-46
2022/01/08 06:48:10;;;;;;;7.37;4.87;;;3.10;99.90;;;;;;5078254;28;20467;-52
2022/01/08 06:50:36;;;;;;;5.73;3.37;;;3.10;99.90;;;;;;5078681;28;20444;-48
2022/01/08 06:53:03;;;;;;;6.50;4.10;;;3.10;99.90;;;;;;5078376;28;20474;-51
2022/01/08 06:55:31;;;;;;;9.50;4.17;;;3.10;99.90;;;;;;5078223;28;20443;-48
2022/01/08 06:57:59;;;;;;;4.43;3.70;;;3.20;99.90;;;;;;5077389;28;20497;-51
2022/01/08 07:00:25;;;;;;;4.90;3.97;;;3.10;99.90;;;;;;5078609;28;20465;-50
2022/01/08 07:02:52;;;;;;;7.97;4.17;;;3.10;99.90;;;;;;5078391;28;20524;-52
2022/01/08 07:05:19;;;;;;;6.23;4.20;;;3.10;99.90;;;;;;5078473;28;20459;-51
2022/01/08 07:07:48;;;;;;;4.40;3.30;;;3.10;99.90;;;;;;5078681;28;20498;-51
2022/01/08 07:10:17;;;;;;;8.13;4.20;;;3.10;99.90;;;;;;5078102;28;20474;-54
2022/01/08 07:12:45;;;;;;;6.00;3.20;;;3.20;99.90;;;;;;5078297;28;20464;-54
2022/01/08 07:15:12;;;;;;;8.27;3.43;;;3.10;99.90;;;;;;5078311;28;20467;-50
2022/01/08 07:17:39;;;;;;;10.17;5.93;;;3.20;99.90;;;;;;5077785;28;20467;-54
2022/01/08 07:20:07;;;;;;;4.60;3.70;;;3.10;99.90;;;;;;5078181;28;20839;-55
2022/01/08 07:22:35;;;;;;;5.90;4.50;;;3.20;99.90;;;;;;5078416;28;20483;-52
2022/01/08 07:25:03;;;;;;;7.00;4.53;;;3.20;99.90;;;;;;5077338;28;20423;-52
2022/01/08 07:27:32;;;;;;;4.97;4.10;;;3.20;99.90;;;;;;5078409;28;20478;-51
2022/01/08 07:30:04;;;;;;;9.70;5.30;;;3.20;99.90;;;;;;5078136;28;20466;-53
2022/01/08 07:32:33;;;;;;;11.20;4.90;;;3.20;99.90;;;;;;5077608;28;20487;-51
2022/01/08 07:35:00;;;;;;;14.93;4.10;;;3.20;99.90;;;;;;5077539;28;20435;-54
2022/01/08 07:37:26;;;;;;;5.97;3.67;;;3.10;99.90;;;;;;5077434;28;20439;-50
2022/01/08 07:39:53;;;;;;;11.93;3.20;;;3.10;99.90;;;;;;5077125;28;20420;-52
2022/01/08 07:42:20;;;;;;;6.70;4.50;;;3.20;99.90;;;;;;5077499;28;20491;-50
2022/01/08 07:44:46;;;;;;;6.60;3.83;;;3.20;99.90;;;;;;5077187;28;20428;-48
2022/01/08 07:47:14;;;;;;;6.67;3.80;;;3.10;99.90;;;;;;5077427;28;20490;-48
2022/01/08 07:49:41;;;;;;;6.67;4.77;;;3.20;99.90;;;;;;5077305;28;20447;-54
2022/01/08 07:52:09;;;;;;;5.90;5.13;;;3.20;99.90;;;;;;5077189;28;20923;-51
2022/01/08 07:54:36;;;;;;;8.30;5.20;;;3.20;99.90;;;;;;5076981;28;20464;-53
2022/01/08 07:57:02;;;;;;;7.27;4.57;;;3.10;99.90;;;;;;5077228;28;20463;-53
2022/01/08 07:59:31;;;;;;;9.20;4.80;;;3.10;99.90;;;;;;5077317;28;20470;-49
2022/01/08 08:01:58;;;;;;;8.07;5.33;;;3.10;99.90;;;;;;5077232;28;20466;-52
2022/01/08 08:04:26;;;;;;;4.90;3.20;;;3.10;99.90;;;;;;5077254;28;20435;-55
2022/01/08 08:06:53;;;;;;;6.90;4.80;;;3.10;99.90;;;;;;5077526;28;20463;-49
2022/01/08 08:09:19;;;;;;;7.40;4.30;;;3.20;99.90;;;;;;5077503;28;20448;-49
2022/01/08 08:11:46;;;;;;;8.90;5.17;;;3.20;99.90;;;;;;5078082;28;20432;-56
2022/01/08 08:14:13;;;;;;;6.43;4.40;;;3.10;99.90;;;;;;5077188;28;20598;-53
2022/01/08 08:16:40;;;;;;;6.10;4.07;;;3.20;99.90;;;;;;5077258;28;20455;-51
2022/01/08 08:19:07;;;;;;;9.60;5.30;;;3.10;99.90;;;;;;5077279;28;20511;-52
2022/01/08 08:21:37;;;;;;;12.07;5.50;;;3.30;99.90;;;;;;5076172;28;20476;-54
2022/01/08 08:24:06;;;;;;;6.60;4.17;;;3.20;99.90;;;;;;5076048;28;20459;-51
2022/01/08 08:26:32;;;;;;;6.27;3.97;;;3.30;99.90;;;;;;5076522;28;20888;-51
2022/01/08 08:28:59;;;;;;;9.57;4.57;;;3.30;99.90;;;;;;5076501;28;20452;-52
2022/01/08 08:31:26;;;;;;;6.73;3.33;;;3.30;99.90;;;;;;5076220;28;20451;-52
2022/01/08 08:33:53;;;;;;;9.13;6.30;;;3.40;99.90;;;;;;5076169;28;20467;-55
2022/01/08 08:36:19;;;;;;;10.87;5.03;;;3.30;99.90;;;;;;5076227;28;20436;-51
2022/01/08 08:38:47;;;;;;;9.00;5.53;;;3.30;99.90;;;;;;5076003;28;20490;-51
2022/01/08 08:41:14;;;;;;;8.10;4.60;;;3.30;99.90;;;;;;5076286;28;20428;-54
2022/01/08 08:43:41;;;;;;;12.33;4.93;;;3.40;99.90;;;;;;5075805;28;20510;-52
2022/01/08 08:46:07;;;;;;;9.70;4.80;;;3.30;99.90;;;;;;5075183;28;20483;-48
2022/01/08 08:48:37;;;;;;;7.60;4.40;;;3.40;99.90;;;;;;5075629;28;20478;-51
2022/01/08 08:51:04;;;;;;;6.20;4.50;;;3.30;99.90;;;;;;5075740;28;20455;-53
2022/01/08 08:53:31;;;;;;;13.50;7.17;;;3.40;99.90;;;;;;5075852;28;20456;-54
2022/01/08 08:55:59;;;;;;;6.57;4.73;;;3.40;99.90;;;;;;5075689;28;20444;-46
2022/01/08 08:58:26;;;;;;;16.30;7.93;;;3.40;99.90;;;;;;5076229;28;20444;-55
2022/01/08 09:00:52;;;;;;;7.97;6.17;;;3.50;99.90;;;;;;5076191;28;20444;-52
2022/01/08 09:03:20;;;;;;;17.70;6.50;;;3.60;99.90;;;;;;5075428;28;20484;-49
2022/01/08 09:05:54;;;;;;;8.57;6.20;;;3.60;99.90;;;;;;5075683;28;20404;-50
2022/01/08 09:08:21;;;;;;;7.27;5.47;;;3.60;99.90;;;;;;5076187;28;20442;-49
2022/01/08 09:10:47;;;;;;;9.23;4.77;;;3.60;99.90;;;;;;5075771;28;20726;-52
2022/01/08 09:13:15;;;;;;;5.47;4.60;;;3.60;99.90;;;;;;5075478;28;20451;-58
2022/01/08 09:15:42;;;;;;;8.63;5.23;;;3.60;99.90;;;;;;5076078;28;20432;-52
2022/01/08 09:18:10;;;;;;;6.40;5.37;;;3.60;99.90;;;;;;5076126;28;20450;-55
2022/01/08 09:20:40;;;;;;;6.90;5.20;;;3.60;99.90;;;;;;5075848;28;20471;-58
2022/01/08 09:23:07;;;;;;;6.20;4.83;;;3.60;99.90;;;;;;5075698;28;20514;-54
2022/01/08 09:25:36;;;;;;;8.00;5.07;;;3.50;99.90;;;;;;5075708;28;20452;-51
2022/01/08 09:28:03;;;;;;;6.70;5.03;;;3.50;99.90;;;;;;5075537;28;20435;-54
2022/01/08 09:30:38;;;;;;;8.83;4.37;;;3.60;99.90;;;;;;5074873;28;20457;-49
2022/01/08 09:33:04;;;;;;;14.40;4.57;;;3.70;99.90;;;;;;5075778;28;20423;-48
2022/01/08 09:35:31;;;;;;;9.17;5.73;;;3.80;99.90;;;;;;5075665;28;20450;-51
2022/01/08 09:37:59;;;;;;;20.90;11.37;;;3.80;99.90;;;;;;5075393;28;20456;-48
2022/01/08 09:40:26;;;;;;;7.67;4.77;;;3.90;99.90;;;;;;5075058;28;20455;-55
2022/01/08 09:42:53;;;;;;;4.67;3.27;;;3.80;99.90;;;;;;5075029;28;20484;-51
2022/01/08 09:45:22;;;;;;;8.80;3.60;;;3.90;99.90;;;;;;5075847;28;20468;-54
2022/01/08 09:47:50;;;;;;;5.83;4.03;;;3.80;99.90;;;;;;5075167;28;20453;-54
2022/01/08 09:50:19;;;;;;;6.37;4.83;;;4.00;99.90;;;;;;5075718;28;20463;-53
2022/01/08 09:52:46;;;;;;;4.97;3.50;;;4.10;99.90;;;;;;5075505;28;20416;-52
2022/01/08 09:55:17;;;;;;;7.13;4.20;;;4.20;99.90;;;;;;5075177;28;20498;-51
2022/01/08 09:57:43;;;;;;;8.93;4.63;;;4.30;99.90;;;;;;5078933;28;20864;-51
2022/01/08 10:00:13;;;;;;;5.50;4.33;;;4.30;99.90;;;;;;5079818;28;20463;-53
2022/01/08 10:02:41;;;;;;;8.33;4.60;;;4.30;99.90;;;;;;5079124;28;20514;-49
2022/01/08 10:05:11;;;;;;;6.53;5.47;;;4.20;99.90;;;;;;5079314;28;20463;-57
2022/01/08 10:07:38;;;;;;;6.07;4.10;;;4.20;99.90;;;;;;5079788;28;20455;-53
2022/01/08 10:10:12;;;;;;;8.63;4.87;;;4.10;99.90;;;;;;5079492;28;20452;-50
2022/01/08 10:12:46;;;;;;;4.13;3.57;;;4.10;99.90;;;;;;5079019;28;20415;-54
2022/01/08 10:18:01;;;;;;;10.67;6.23;;;4.10;99.90;;;;;;5079046;28;20415;-51
2022/01/08 10:20:32;;;;;;;6.73;3.53;;;3.90;99.90;;;;;;5078833;28;20482;-50
2022/01/08 10:23:12;;;;;;;5.20;4.47;;;3.90;99.90;;;;;;5079194;28;20466;-54
2022/01/08 10:25:40;;;;;;;9.23;6.07;;;3.90;99.90;;;;;;5078624;28;20570;-50
2022/01/08 10:28:07;;;;;;;8.40;4.93;;;3.90;99.90;;;;;;5078532;28;20443;-48
2022/01/08 10:30:34;;;;;;;6.97;4.80;;;4.00;99.90;;;;;;5078573;28;20478;-48
2022/01/08 10:33:02;;;;;;;7.17;4.73;;;4.20;99.90;;;;;;5079118;28;20904;-53
2022/01/08 10:35:50;;;;;;;5.90;3.97;;;4.40;99.90;;;;;;5078503;28;20463;-51
2022/01/08 10:38:17;;;;;;;8.43;5.13;;;4.60;99.90;;;;;;5078922;28;20448;-51
2022/01/08 10:40:47;;;;;;;12.13;6.70;;;4.70;99.90;;;;;;5078726;28;20498;-53
2022/01/08 10:43:26;;;;;;;8.70;4.53;;;4.70;99.90;;;;;;5078301;28;20505;-51
2022/01/08 10:45:54;;;;;;;9.37;4.17;;;4.50;99.90;;;;;;5078511;28;20463;-53
2022/01/08 10:48:33;;;;;;;7.43;4.70;;;4.40;99.90;;;;;;5078383;28;20467;-46
2022/01/08 10:51:14;;;;;;;9.20;5.27;;;4.30;99.90;;;;;;5078418;28;20435;-54
2022/01/08 10:54:00;;;;;;;8.77;4.87;;;4.20;99.90;;;;;;5078388;28;20420;-50
2022/01/08 10:56:30;;;;;;;6.53;3.80;;;4.10;99.90;;;;;;5078161;28;20427;-51
2022/01/08 10:59:02;;;;;;;7.13;4.97;;;4.00;99.90;;;;;;5078562;28;20495;-47
2022/01/08 11:01:42;;;;;;;9.37;5.23;;;4.00;99.90;;;;;;5078530;28;20424;-52
2022/01/08 11:04:12;;;;;;;6.30;4.50;;;4.00;99.90;;;;;;5078104;28;20486;-53
2022/01/08 11:06:55;;;;;;;6.60;4.57;;;4.00;99.90;;;;;;5078406;28;20446;-51
2022/01/08 11:09:23;;;;;;;4.77;3.67;;;4.10;99.90;;;;;;5077466;28;20428;-52
2022/01/08 11:11:54;;;;;;;5.73;4.00;;;4.10;99.90;;;;;;5078001;28;20466;-55
2022/01/08 11:14:46;;;;;;;7.63;5.30;;;4.00;99.90;;;;;;5078187;28;20483;-49
2022/01/08 11:17:14;;;;;;;7.97;3.83;;;4.10;99.90;;;;;;5077565;28;20443;-55
2022/01/08 11:19:44;;;;;;;5.90;3.90;;;4.10;99.90;;;;;;5077332;28;20447;-52
2022/01/08 11:22:16;;;;;;;7.10;4.70;;;4.10;99.90;;;;;;5077803;28;20436;-49
2022/01/08 11:24:50;;;;;;;11.67;5.00;;;4.20;99.90;;;;;;5078095;28;20438;-58
2022/01/08 11:27:22;;;;;;;5.50;3.97;;;4.10;99.90;;;;;;5077648;28;20423;-52
2022/01/08 11:29:56;;;;;;;5.00;4.10;;;4.10;99.90;;;;;;5077774;28;20471;-51
2022/01/08 11:32:23;;;;;;;13.97;3.83;;;4.10;99.90;;;;;;5077587;28;20486;-51
2022/01/08 11:34:50;;;;;;;6.67;3.73;;;4.20;99.90;;;;;;5077161;28;20448;-50
2022/01/08 11:37:21;;;;;;;7.40;4.37;;;4.20;99.90;;;;;;5077508;28;20463;-52
2022/01/08 11:39:55;;;;;;;5.47;3.00;;;4.20;99.90;;;;;;5076982;28;20439;-52
2022/01/08 11:42:22;;;;;;;8.20;4.40;;;4.20;99.90;;;;;;5077284;28;20440;-54
2022/01/08 11:44:53;;;;;;;6.20;4.10;;;4.30;99.90;;;;;;5077404;28;20415;-52
2022/01/08 11:47:22;;;;;;;4.87;4.00;;;4.30;99.90;;;;;;5076886;28;20475;-52
2022/01/08 11:49:49;;;;;;;5.07;4.03;;;4.30;99.90;;;;;;5077293;28;20471;-52
2022/01/08 11:52:20;;;;;;;5.63;3.03;;;4.10;99.90;;;;;;5076656;28;20493;-47
2022/01/08 11:54:48;;;;;;;5.30;4.30;;;4.00;99.90;;;;;;5076955;28;20498;-51
2022/01/08 11:57:17;;;;;;;7.63;4.60;;;4.00;99.90;;;;;;5076589;28;20432;-49
2022/01/08 11:59:44;;;;;;;4.93;3.40;;;3.90;99.90;;;;;;5076341;28;20524;-52
2022/01/08 12:02:13;;;;;;;5.77;4.03;;;3.80;99.90;;;;;;5076187;28;20443;-49
2022/01/08 12:04:41;;;;;;;6.07;3.57;;;3.90;99.90;;;;;;5076887;28;20495;-51
2022/01/08 12:07:25;;;;;;;3.40;2.43;;;3.90;99.90;;;;;;5076509;28;20432;-53
2022/01/08 12:10:09;;;;;;;9.90;2.60;;;3.90;99.90;;;;;;5073999;28;20505;-51
2022/01/08 12:12:47;;;;;;;8.60;3.77;;;3.90;99.90;;;;;;5076227;28;20420;-51
2022/01/08 12:15:14;;;;;;;6.20;3.30;;;3.90;99.90;;;;;;5076271;28;20447;-51
2022/01/08 12:17:53;;;;;;;5.30;4.13;;;3.90;99.90;;;;;;5075922;28;20432;-52
2022/01/08 12:20:47;;;;;;;3.70;2.97;;;3.90;99.90;;;;;;5075070;28;20482;-48
2022/01/08 12:23:36;;;;;;;4.97;2.97;;;3.80;99.90;;;;;;5076042;28;20486;-50
2022/01/08 12:26:06;;;;;;;6.73;3.80;;;3.80;99.90;;;;;;5076723;28;20463;-53
2022/01/08 12:28:53;;;;;;;3.50;2.53;;;3.80;99.90;;;;;;5076864;28;20487;-50
2022/01/08 12:31:30;;;;;;;6.20;2.67;;;3.90;99.90;;;;;;5076129;28;20948;-54
2022/01/08 12:34:48;;;;;;;4.30;2.90;;;3.90;99.90;;;;;;5075913;28;20428;-60
2022/01/08 12:37:15;;;;;;;8.93;4.97;;;3.90;99.90;;;;;;5014883;28;20446;-53
2022/01/08 12:40:05;;;;;;;6.33;3.50;;;4.00;99.90;;;;;;5064491;28;20457;-49
2022/01/08 12:42:46;;;;;;;7.40;3.93;;;4.00;99.90;;;;;;5075859;28;20416;-51
2022/01/08 12:45:22;;;;;;;7.17;3.80;;;4.10;99.90;;;;;;5076147;28;20436;-48
2022/01/08 12:47:55;;;;;;;6.03;3.57;;;4.10;99.90;;;;;;5076360;28;20434;-52
2022/01/08 12:50:30;;;;;;;5.90;3.63;;;4.10;99.90;;;;;;5076282;28;20436;-53
2022/01/08 12:53:22;;;;;;;5.80;4.07;;;4.20;99.90;;;;;;5076640;28;20486;-52
2022/01/08 12:56:18;;;;;;;6.33;4.60;;;4.50;99.90;;;;;;5076201;28;20474;-53
2022/01/08 12:58:51;;;;;;;5.43;3.50;;;4.50;99.90;;;;;;5076402;28;20443;-49
2022/01/08 13:01:20;;;;;;;7.90;3.10;;;4.60;99.90;;;;;;5076695;28;20463;-51
2022/01/08 13:03:48;;;;;;;4.43;3.00;;;4.70;99.90;;;;;;5076228;28;20476;-51
2022/01/08 13:06:26;;;;;;;8.07;3.87;;;4.70;99.90;;;;;;5076454;28;20463;-52
2022/01/08 13:08:54;;;;;;;5.63;3.77;;;4.70;99.90;;;;;;5076525;28;20414;-50
2022/01/08 13:11:29;;;;;;;6.23;3.73;;;4.70;99.90;;;;;;5075804;28;20478;-53
2022/01/08 13:14:00;;;;;;;9.93;4.40;;;4.60;99.90;;;;;;5076609;28;20431;-52
2022/01/08 13:16:31;;;;;;;8.20;4.37;;;4.70;99.90;;;;;;5076244;28;20523;-50
2022/01/08 13:19:00;;;;;;;6.80;3.53;;;4.60;99.90;;;;;;5075486;28;20459;-51
2022/01/08 13:21:30;;;;;;;3.20;2.80;;;4.60;99.90;;;;;;5075524;28;20474;-52